Appleton, Washington
Current Conditions -  °F | °C
As of 10:53 AM on Friday 21 Nov 2014 (Local Time) from KDLS Reporting Station
Light Rain Light Rain  
Wind Chill: 34°   Ceiling: 900
Heat Index: 34°   Visibility: 2.5mi
Dew Point: 30°   Wind: 0mph
Humidity: 85%   Direction: NA
Pressure: 29.9"   Gusts: NA
Location:  45.81°N, 121.27°W
Report Text: KDLS 211853Z AUTO 00000KT 2 1/2SM -RA BR OVC009 01/M01 A2990 RMK AO2 UPB02E34RAB11E15B34 SLP127 P0000 T00111011
Loading
Personal Weather Stations






























Interactive Weather Map New forecast layout! Learn more

10-Day Weather Forecast

Advertisements
Track Severe Weather on mobile